Time;durP1;ratioP1;P1;durP2;ratioP2;P2;SDS_P1;SDS_P2;PMS_P1;PMS_P2;Temp;Humidity;BMP_temperature;BMP_pressure;BME280_temperature;BME280_humidity;BME280_pressure;Samples;Min_cycle;Max_cycle;Signal;HPM_P1;HPM_P2
2022/08/29 00:00:21;;;;;;;20.67;4.60;;;;;;;15.68;100.00;98904.47;5009773;28;20072;-69
2022/08/29 00:02:49;;;;;;;7.97;4.10;;;;;;;15.68;100.00;98912.66;5011745;28;20018;-69
2022/08/29 00:05:17;;;;;;;8.05;4.70;;;;;;;15.65;100.00;98903.03;4993568;28;20129;-69
2022/08/29 00:07:42;;;;;;;9.23;4.90;;;;;;;15.66;100.00;98901.13;5013530;28;20124;-69
2022/08/29 00:10:08;;;;;;;8.38;4.47;;;;;;;15.56;100.00;98904.44;5012148;28;20064;-69
2022/08/29 00:12:34;;;;;;;7.85;4.57;;;;;;;15.46;100.00;98902.28;5013039;28;20030;-69
2022/08/29 00:14:59;;;;;;;7.88;4.47;;;;;;;15.30;100.00;98887.44;5004962;28;20028;-69
2022/08/29 00:17:25;;;;;;;5.97;4.15;;;;;;;15.34;100.00;98904.97;4991324;28;20060;-69
2022/08/29 00:19:50;;;;;;;6.72;4.03;;;;;;;15.26;100.00;98901.75;5007541;28;20049;-69
2022/08/29 00:22:15;;;;;;;6.35;3.90;;;;;;;15.24;100.00;98909.31;5011644;28;20022;-69
2022/08/29 00:24:41;;;;;;;10.45;5.72;;;;;;;15.11;100.00;98905.69;4987310;28;20033;-69
2022/08/29 00:27:06;;;;;;;7.32;4.20;;;;;;;15.15;100.00;98916.16;5009624;28;20287;-69
2022/08/29 00:29:31;;;;;;;7.05;3.63;;;;;;;15.13;100.00;98924.56;5009587;28;20041;-69
2022/08/29 00:31:56;;;;;;;10.77;4.93;;;;;;;15.08;100.00;98913.50;5004791;28;20032;-69
2022/08/29 00:34:22;;;;;;;9.18;4.90;;;;;;;14.90;100.00;98881.69;5010156;28;20037;-69
2022/08/29 00:36:47;;;;;;;5.13;4.03;;;;;;;14.99;100.00;98907.56;5007046;28;20108;-69
2022/08/29 00:39:12;;;;;;;8.82;4.82;;;;;;;14.84;100.00;98899.78;4989238;28;20030;-69
2022/08/29 00:41:38;;;;;;;7.45;4.55;;;;;;;14.93;100.00;98915.81;5001026;28;20634;-69
2022/08/29 00:44:04;;;;;;;6.68;3.97;;;;;;;14.88;100.00;98916.47;5003090;28;20030;-69
2022/08/29 00:46:41;;;;;;;6.53;3.97;;;;;;;14.85;100.00;98917.78;5004525;28;20034;-69
2022/08/29 00:49:35;;;;;;;8.30;3.97;;;;;;;14.81;100.00;98915.75;5008981;28;20026;-69
2022/08/29 00:52:15;;;;;;;13.88;4.85;;;;;;;14.78;100.00;98924.38;4998382;28;20034;-69
2022/08/29 00:54:43;;;;;;;9.20;4.55;;;;;;;14.78;100.00;98924.38;5008556;28;20494;-69
2022/08/29 00:57:10;;;;;;;11.10;5.18;;;;;;;14.88;100.00;98924.66;5008510;28;20279;-69
2022/08/29 00:59:38;;;;;;;6.45;4.47;;;;;;;14.83;100.00;98922.63;5006614;28;20049;-69
2022/08/29 01:02:05;;;;;;;7.80;4.60;;;;;;;14.87;100.00;98914.81;5003412;28;20030;-69
2022/08/29 01:04:32;;;;;;;6.85;4.40;;;;;;;14.67;100.00;98899.56;5005799;28;20026;-69
2022/08/29 01:06:58;;;;;;;9.40;4.95;;;;;;;14.74;100.00;98925.88;5009533;28;20029;-69
2022/08/29 01:09:25;;;;;;;10.73;4.07;;;;;;;14.72;100.00;98933.44;5015274;28;20083;-69
2022/08/29 01:14:35;;;;;;;6.53;4.00;;;;;;;14.58;100.00;98933.59;5010023;28;20375;-69
2022/08/29 01:17:02;;;;;;;9.75;4.55;;;;;;;14.58;100.00;98917.25;4993868;28;20108;-69
2022/08/29 01:19:49;;;;;;;7.00;4.28;;;;;;;14.61;100.00;98930.41;5008714;28;20026;-69
2022/08/29 01:22:47;;;;;;;9.98;4.43;;;;;;;14.49;100.00;98926.75;5009589;28;20036;-69
2022/08/29 01:25:18;;;;;;;8.48;4.15;;;;;;;14.45;100.00;98922.81;5003832;28;20514;-69
2022/08/29 01:27:46;;;;;;;8.80;4.18;;;;;;;14.53;100.00;98930.72;5009039;28;20033;-69
2022/08/29 01:30:14;;;;;;;8.30;5.00;;;;;;;14.52;100.00;98933.66;5008387;28;20029;-69
2022/08/29 01:32:39;;;;;;;7.22;4.68;;;;;;;14.44;100.00;98932.06;5005729;28;20029;-69
2022/08/29 01:35:07;;;;;;;7.88;4.18;;;;;;;14.37;100.00;98937.53;4990742;28;20037;-69
2022/08/29 01:37:35;;;;;;;9.23;4.57;;;;;;;14.35;100.00;98936.94;5006610;28;20109;-69
2022/08/29 01:40:00;;;;;;;8.52;4.70;;;;;;;14.18;100.00;98909.47;5006155;28;20038;-69
2022/08/29 01:42:26;;;;;;;7.53;4.25;;;;;;;14.29;100.00;98926.13;5010638;28;20026;-69
2022/08/29 01:44:57;;;;;;;7.82;4.75;;;;;;;14.29;100.00;98928.84;5004487;28;20583;-69
2022/08/29 01:47:25;;;;;;;12.13;4.47;;;;;;;14.31;100.00;98929.47;5006303;28;20030;-69
2022/08/29 01:49:51;;;;;;;7.43;4.00;;;;;;;14.16;100.00;98913.47;5008776;28;20042;-69
2022/08/29 01:52:16;;;;;;;10.88;4.25;;;;;;;14.34;100.00;98938.00;5002744;28;20514;-69
2022/08/29 01:54:43;;;;;;;7.88;4.32;;;;;;;14.38;100.00;98939.22;5005653;28;20047;-69
2022/08/29 01:57:11;;;;;;;8.80;4.05;;;;;;;14.33;100.00;98936.34;5008381;28;20032;-69
2022/08/29 01:59:37;;;;;;;7.70;4.18;;;;;;;14.35;100.00;98934.22;4991389;28;20026;-69
2022/08/29 02:02:16;;;;;;;7.60;4.35;;;;;;;14.36;100.00;98935.06;5000124;28;20041;-69
2022/08/29 02:04:44;;;;;;;6.40;4.25;;;;;;;14.40;100.00;98939.81;5008488;28;20028;-69
2022/08/29 02:07:10;;;;;;;9.32;4.13;;;;;;;14.29;100.00;98939.75;5009445;28;20098;-69
2022/08/29 02:09:36;;;;;;;6.18;3.95;;;;;;;14.12;100.00;98940.31;5011533;28;20108;-69
2022/08/29 02:12:05;;;;;;;8.55;4.60;;;;;;;14.05;100.00;98934.09;5003931;28;20045;-69
2022/08/29 02:14:31;;;;;;;9.30;4.47;;;;;;;14.02;100.00;98918.22;5014184;28;20029;-69
2022/08/29 02:16:56;;;;;;;10.00;4.07;;;;;;;14.04;100.00;98926.97;5132961;23;20051;-58
2022/08/29 02:19:22;;;;;;;10.02;4.38;;;;;;;13.96;100.00;98941.72;5025613;28;20044;-58
2022/08/29 02:21:48;;;;;;;7.45;4.35;;;;;;;13.97;100.00;98939.81;5026824;28;20456;-58
2022/08/29 02:24:16;;;;;;;6.82;4.28;;;;;;;14.08;100.00;98941.81;5020571;28;20029;-58
2022/08/29 02:26:42;;;;;;;10.37;4.73;;;;;;;14.08;100.00;98939.06;5015173;28;20032;-58
2022/08/29 02:29:08;;;;;;;5.72;3.97;;;;;;;13.98;100.00;98944.19;5013671;28;20272;-58
2022/08/29 02:31:35;;;;;;;7.63;4.70;;;;;;;13.89;100.00;98945.53;5014304;28;20030;-58
2022/08/29 02:34:01;;;;;;;7.25;4.15;;;;;;;13.93;100.00;98944.03;5012164;28;20039;-58
2022/08/29 02:36:26;;;;;;;7.90;4.40;;;;;;;13.98;100.00;98944.19;5014873;28;20022;-58
2022/08/29 02:38:52;;;;;;;7.68;4.22;;;;;;;13.91;100.00;98943.41;5015735;28;20037;-58
2022/08/29 02:41:17;;;;;;;11.57;4.32;;;;;;;13.85;100.00;98944.28;5016248;28;20465;-58
2022/08/29 02:43:43;;;;;;;9.60;4.53;;;;;;;13.81;100.00;98943.91;5015477;28;20044;-58
2022/08/29 02:46:12;;;;;;;6.45;5.03;;;;;;;13.85;100.00;98945.13;5016638;28;20429;-58
2022/08/29 02:48:37;;;;;;;10.40;5.00;;;;;;;13.78;100.00;98944.34;5029804;28;20105;-58
2022/08/29 02:51:03;;;;;;;11.48;5.00;;;;;;;13.71;100.00;98940.84;5014702;28;20029;-58
2022/08/29 02:53:29;;;;;;;11.10;5.53;;;;;;;13.59;100.00;98940.72;5019768;28;20028;-58
2022/08/29 02:55:55;;;;;;;8.30;5.18;;;;;;;13.52;100.00;98943.50;5016799;28;20061;-58
2022/08/29 02:58:23;;;;;;;8.88;4.38;;;;;;;13.51;100.00;98938.25;5017009;28;20068;-58
2022/08/29 03:00:49;;;;;;;10.45;4.82;;;;;;;13.30;100.00;98923.94;5011790;28;20025;-58
2022/08/29 03:03:15;;;;;;;10.88;4.90;;;;;;;13.36;100.00;98943.97;5014088;28;20017;-58
2022/08/29 03:05:41;;;;;;;9.50;5.00;;;;;;;13.36;100.00;98941.25;5009731;28;20030;-58
2022/08/29 03:08:09;;;;;;;11.75;5.60;;;;;;;13.30;100.00;98936.72;5018198;28;20053;-58
2022/08/29 03:10:35;;;;;;;13.82;4.60;;;;;;;13.28;100.00;98933.38;5016964;28;20025;-58
2022/08/29 03:13:01;;;;;;;9.57;4.78;;;;;;;13.23;100.00;98941.31;5015375;28;20506;-58
2022/08/29 03:15:27;;;;;;;5.65;4.25;;;;;;;13.19;100.00;98940.91;5014702;28;20039;-58
2022/08/29 03:17:53;;;;;;;16.42;4.97;;;;;;;13.17;100.00;98945.72;5006311;28;20033;-58
2022/08/29 03:20:20;;;;;;;11.60;4.70;;;;;;;13.10;100.00;98936.81;5019473;28;20551;-58
2022/08/29 03:22:47;;;;;;;8.82;4.80;;;;;;;13.13;100.00;98939.06;5027907;28;20064;-58
2022/08/29 03:25:14;;;;;;;10.73;4.90;;;;;;;13.13;100.00;98930.94;5012502;28;20412;-58
2022/08/29 03:27:40;;;;;;;7.15;4.55;;;;;;;13.11;100.00;98922.16;5030473;28;20060;-58
2022/08/29 03:30:07;;;;;;;7.65;4.70;;;;;;;13.18;100.00;98931.13;5009180;28;20055;-58
2022/08/29 03:32:32;;;;;;;13.05;5.03;;;;;;;13.15;100.00;98928.81;5010636;28;22189;-58
2022/08/29 03:34:58;;;;;;;9.27;4.70;;;;;;;13.15;100.00;98928.81;5014876;28;20030;-58
2022/08/29 03:37:25;;;;;;;13.55;5.13;;;;;;;13.11;100.00;98919.44;5016830;28;20029;-58
2022/08/29 03:39:50;;;;;;;11.50;5.10;;;;;;;13.10;100.00;98928.66;5011515;28;20471;-58
2022/08/29 03:42:15;;;;;;;9.00;4.60;;;;;;;13.02;100.00;98928.88;5012230;28;20150;-58
2022/08/29 03:44:41;;;;;;;9.88;4.80;;;;;;;12.90;100.00;98932.28;5007236;28;20099;-58
2022/08/29 03:47:07;;;;;;;7.95;4.63;;;;;;;12.86;100.00;98936.50;5014158;28;20036;-58
2022/08/29 03:49:33;;;;;;;9.13;5.40;;;;;;;12.85;100.00;98934.81;5016488;28;20089;-58
2022/08/29 03:51:58;;;;;;;11.15;4.75;;;;;;;12.87;100.00;98940.84;5014580;28;20025;-58
2022/08/29 03:54:24;;;;;;;7.90;4.97;;;;;;;12.85;100.00;98940.22;5016826;28;20556;-58
2022/08/29 03:56:50;;;;;;;15.43;4.55;;;;;;;12.84;100.00;98935.03;5014539;28;20087;-57
2022/08/29 03:59:16;;;;;;;8.98;4.50;;;;;;;12.74;100.00;98940.91;5010374;28;20036;-57
2022/08/29 04:01:42;;;;;;;9.43;4.22;;;;;;;12.84;100.00;98946.72;5014810;28;20017;-58
2022/08/29 04:05:05;;;;;;;7.93;4.20;;;;;;;12.90;100.00;98945.84;5009239;28;20083;-58
2022/08/29 04:06:53;;;;;;;9.43;4.03;;;;;;;12.93;100.00;98950.03;5030420;28;20112;-58
2022/08/29 04:09:18;;;;;;;8.85;4.28;;;;;;;12.82;100.00;98951.53;5006424;28;20028;-58
2022/08/29 04:11:44;;;;;;;6.95;3.92;;;;;;;12.80;100.00;98953.63;5008847;28;20040;-58
2022/08/29 04:14:09;;;;;;;9.70;3.83;;;;;;;12.87;100.00;98953.59;5013288;28;20025;-58
2022/08/29 04:16:34;;;;;;;7.07;4.55;;;;;;;12.88;100.00;98952.53;5013224;28;20026;-58
2022/08/29 04:19:00;;;;;;;8.13;4.32;;;;;;;12.86;100.00;98952.78;5007412;28;20037;-59
2022/08/29 04:21:25;;;;;;;11.90;4.78;;;;;;;12.84;100.00;98949.44;5005920;28;20028;-59
2022/08/29 04:23:50;;;;;;;11.13;4.85;;;;;;;12.78;100.00;98947.56;5009721;28;20032;-59
2022/08/29 04:26:18;;;;;;;9.57;4.88;;;;;;;12.82;100.00;98950.69;5005400;28;20022;-59
2022/08/29 04:28:44;;;;;;;8.23;4.55;;;;;;;12.85;100.00;98948.38;5014826;28;20029;-58
2022/08/29 04:31:20;;;;;;;10.82;4.35;;;;;;;12.76;100.00;98962.41;5008357;28;20033;-59
2022/08/29 04:33:51;;;;;;;8.25;5.40;;;;;;;12.66;100.00;98966.41;5009702;28;20072;-59
2022/08/29 04:36:17;;;;;;;10.45;6.00;;;;;;;12.72;100.00;98962.81;5014680;28;20075;-58
2022/08/29 04:38:42;;;;;;;16.58;6.15;;;;;;;12.72;100.00;98956.56;5011251;28;20030;-58
2022/08/29 04:41:13;;;;;;;10.65;6.68;;;;;;;12.77;100.00;98962.19;5013093;28;20036;-59
2022/08/29 04:43:44;;;;;;;9.63;6.00;;;;;;;12.69;100.00;98967.84;5010722;28;20579;-59
2022/08/29 04:46:10;;;;;;;12.55;6.53;;;;;;;12.75;100.00;98971.59;5012262;28;20041;-59
2022/08/29 04:48:35;;;;;;;12.88;6.47;;;;;;;12.86;100.00;98960.94;5013038;28;20544;-58
2022/08/29 04:51:01;;;;;;;14.48;5.47;;;;;;;12.90;100.00;98964.88;5013843;28;22181;-59
2022/08/29 04:53:28;;;;;;;10.23;5.13;;;;;;;12.87;100.00;98961.75;5019985;28;20021;-58
2022/08/29 04:55:56;;;;;;;9.90;4.18;;;;;;;12.88;100.00;98958.81;5012982;28;20465;-59
2022/08/29 04:58:24;;;;;;;9.13;3.95;;;;;;;12.91;100.00;98958.38;5012413;28;20079;-59
2022/08/29 05:00:49;;;;;;;9.43;4.75;;;;;;;12.89;100.00;98965.91;5011961;28;20025;-59
2022/08/29 05:03:15;;;;;;;15.05;5.63;;;;;;;12.86;100.00;98951.91;5014874;28;20044;-59
2022/08/29 05:05:40;;;;;;;13.43;6.40;;;;;;;13.03;100.00;98957.72;5012636;28;20021;-59
2022/08/29 05:08:05;;;;;;;7.30;4.40;;;;;;;13.14;100.00;98965.19;5013815;28;20029;-59
2022/08/29 05:10:31;;;;;;;9.05;4.75;;;;;;;13.10;100.00;98959.38;5010391;28;20025;-59
2022/08/29 05:12:57;;;;;;;8.93;4.05;;;;;;;13.30;100.00;98970.16;5010547;28;20026;-59
2022/08/29 05:15:22;;;;;;;9.95;3.85;;;;;;;13.46;100.00;98968.81;5011636;28;20423;-59
2022/08/29 05:17:48;;;;;;;10.10;4.18;;;;;;;13.54;100.00;98978.59;5012911;28;20061;-59
2022/08/29 05:20:13;;;;;;;7.65;4.40;;;;;;;13.56;100.00;98977.31;5009226;28;20053;-60
2022/08/29 05:22:41;;;;;;;11.63;6.20;;;;;;;13.70;100.00;98983.53;5012966;28;20369;-59
2022/08/29 05:25:07;;;;;;;13.50;5.10;;;;;;;13.68;100.00;98992.97;5009570;28;20025;-60
2022/08/29 05:27:32;;;;;;;10.63;5.35;;;;;;;13.74;100.00;98995.63;5005845;28;20025;-59
2022/08/29 05:29:58;;;;;;;14.65;4.85;;;;;;;13.81;100.00;98988.25;5008118;28;22139;-59
2022/08/29 05:32:24;;;;;;;11.05;5.35;;;;;;;14.04;100.00;98986.81;5012988;28;20440;-59
2022/08/29 05:34:49;;;;;;;10.73;4.70;;;;;;;14.24;100.00;98989.38;5013972;28;20055;-59
2022/08/29 05:37:20;;;;;;;10.55;5.45;;;;;;;14.36;100.00;98994.94;5025506;28;20022;-59
2022/08/29 05:39:47;;;;;;;9.07;4.60;;;;;;;14.61;100.00;98994.94;5010577;28;20025;-59
2022/08/29 05:42:15;;;;;;;9.50;4.68;;;;;;;14.93;100.00;99005.69;5010576;28;20032;-59
2022/08/29 05:44:41;;;;;;;11.55;4.50;;;;;;;15.46;100.00;98995.00;5014268;28;20029;-60
2022/08/29 05:47:09;;;;;;;8.57;4.57;;;;;;;16.10;100.00;98984.41;5011839;28;20025;-60
2022/08/29 05:49:59;;;;;;;9.20;4.30;;;;;;;17.70;94.12;98986.81;5033857;28;20029;-61
2022/08/29 05:52:43;;;;;;;11.95;4.43;;;;;;;19.37;76.20;98989.69;5044943;22;20112;-60
2022/08/29 05:55:10;;;;;;;9.65;4.43;;;;;;;20.91;69.07;98977.38;5058204;22;20077;-71
2022/08/29 05:57:36;;;;;;;11.35;4.47;;;;;;;21.94;63.17;98982.13;5041909;28;20025;-67
2022/08/29 06:00:03;;;;;;;9.38;4.10;;;;;;;23.03;58.13;98972.69;5047933;28;20044;-67
2022/08/29 06:02:28;;;;;;;8.88;3.55;;;;;;;24.11;52.97;98992.34;5037185;28;20025;-67
2022/08/29 06:04:54;;;;;;;7.88;3.40;;;;;;;24.25;52.29;98996.91;5045582;28;20368;-70
2022/08/29 06:07:19;;;;;;;5.25;3.40;;;;;;;24.82;51.12;98974.31;5035450;28;20080;-68
2022/08/29 06:09:45;;;;;;;8.93;4.45;;;;;;;24.97;49.90;98992.69;5052998;28;20032;-71
2022/08/29 06:12:13;;;;;;;7.00;3.78;;;;;;;25.59;49.18;98993.63;5033361;28;20466;-69
2022/08/29 06:14:39;;;;;;;8.13;3.83;;;;;;;25.92;47.90;98999.31;5039060;28;20040;-70
2022/08/29 06:17:07;;;;;;;8.00;3.90;;;;;;;25.68;47.89;98991.84;5048836;28;20028;-74
2022/08/29 06:19:33;;;;;;;10.15;4.22;;;;;;;26.78;45.43;98985.97;5022850;28;20021;-75
2022/08/29 06:22:02;;;;;;;7.25;3.63;;;;;;;27.62;44.74;98998.75;5023066;28;20155;-74
2022/08/29 06:24:28;;;;;;;7.93;3.67;;;;;;;27.03;44.24;99006.84;5045013;28;20505;-75
2022/08/29 06:26:53;;;;;;;6.53;2.97;;;;;;;27.18;44.12;99000.22;5023447;28;20095;-75
2022/08/29 06:29:18;;;;;;;11.80;3.00;;;;;;;27.86;42.04;99014.41;5023087;28;20538;-70
2022/08/29 06:31:44;;;;;;;7.22;2.90;;;;;;;27.84;42.66;99023.03;5039091;28;20028;-69
2022/08/29 06:34:09;;;;;;;8.05;3.35;;;;;;;27.92;42.14;99027.03;5044614;28;20555;-68
2022/08/29 06:36:35;;;;;;;5.28;2.63;;;;;;;28.26;41.70;99025.69;5044474;28;20025;-72
2022/08/29 06:39:05;;;;;;;4.75;2.63;;;;;;;28.00;41.26;99015.16;5017906;28;20060;-72
2022/08/29 06:41:31;;;;;;;7.40;3.13;;;;;;;28.58;40.65;99019.09;5013039;28;20847;-74
2022/08/29 06:43:57;;;;;;;6.28;3.08;;;;;;;27.70;42.13;99020.25;5022418;28;20034;-74
2022/08/29 06:46:26;;;;;;;6.25;3.22;;;;;;;28.56;41.85;99019.41;5045472;28;20029;-72
2022/08/29 06:48:52;;;;;;;7.00;3.00;;;;;;;29.47;38.80;99018.09;5053602;28;20494;-75
2022/08/29 06:51:18;;;;;;;5.00;2.78;;;;;;;30.47;37.41;98996.88;5053331;28;20114;-73
2022/08/29 06:53:45;;;;;;;6.25;2.95;;;;;;;31.70;35.47;99014.03;5015794;28;20057;-74
2022/08/29 06:56:10;;;;;;;6.32;2.83;;;;;;;30.43;37.78;99007.06;5042795;28;20029;-74
2022/08/29 06:58:35;;;;;;;6.20;2.30;;;;;;;30.49;37.00;99011.31;5029805;28;20028;-68
2022/08/29 07:01:06;;;;;;;8.27;2.55;;;;;;;31.12;36.30;99024.84;5048470;28;20025;-66
2022/08/29 07:03:32;;;;;;;10.32;2.92;;;;;;;32.73;34.30;99023.63;5044193;28;20022;-70
2022/08/29 07:05:57;;;;;;;6.18;2.70;;;;;;;32.95;33.81;99024.38;5042408;28;20033;-67
2022/08/29 07:08:22;;;;;;;5.50;2.42;;;;;;;33.54;32.05;99032.44;5039115;28;20080;-67
2022/08/29 07:10:48;;;;;;;4.85;2.40;;;;;;;34.07;30.87;99026.09;5045816;28;20025;-68
2022/08/29 07:13:13;;;;;;;3.38;2.60;;;;;;;34.33;30.89;99022.84;5046149;28;20028;-70
2022/08/29 07:15:38;;;;;;;5.90;2.80;;;;;;;34.23;30.73;99019.34;5061116;28;20050;-68
2022/08/29 07:18:04;;;;;;;6.22;2.88;;;;;;;32.60;32.42;99018.34;5035398;28;20506;-67
2022/08/29 07:20:29;;;;;;;4.78;2.47;;;;;;;33.11;32.52;99011.34;5036010;28;20032;-69
2022/08/29 07:22:58;;;;;;;8.15;2.90;;;;;;;33.39;32.01;99010.66;5044966;28;20044;-70
2022/08/29 07:25:23;;;;;;;4.95;2.80;;;;;;;33.32;32.33;99019.66;5052659;28;20501;-67
2022/08/29 07:27:50;;;;;;;4.93;2.20;;;;;;;34.29;30.88;98974.16;5025002;28;20029;-71
2022/08/29 07:30:15;;;;;;;7.72;2.45;;;;;;;34.84;30.05;99011.84;5054677;28;20104;-67
2022/08/29 07:32:44;;;;;;;5.30;2.30;;;;;;;34.95;30.41;99037.44;5036305;28;20044;-68
2022/08/29 07:35:11;;;;;;;7.05;2.60;;;;;;;34.78;30.43;99019.72;5044438;28;20108;-70
2022/08/29 07:37:37;;;;;;;6.15;2.30;;;;;;;34.06;31.22;99019.66;5027384;28;20033;-69
2022/08/29 07:40:02;;;;;;;6.07;2.53;;;;;;;33.50;30.97;99033.47;5056981;28;20073;-70
2022/08/29 07:42:28;;;;;;;3.88;2.35;;;;;;;34.31;30.79;99026.00;5036744;28;20013;-67
2022/08/29 07:44:53;;;;;;;4.90;2.38;;;;;;;34.30;30.70;99023.53;5056019;28;20032;-70
2022/08/29 07:47:19;;;;;;;4.95;2.58;;;;;;;34.40;31.47;99012.66;5047782;28;20032;-69
2022/08/29 07:49:45;;;;;;;3.80;2.20;;;;;;;34.32;30.81;99018.41;5036190;28;20475;-70
2022/08/29 07:52:10;;;;;;;5.00;2.30;;;;;;;34.23;31.45;99029.78;5029577;28;20100;-69
2022/08/29 07:54:35;;;;;;;5.47;2.47;;;;;;;34.46;31.52;99010.38;5034989;28;20032;-70
2022/08/29 07:57:01;;;;;;;7.05;2.70;;;;;;;34.59;30.46;99030.84;5042687;28;20482;-74
2022/08/29 07:59:26;;;;;;;6.25;2.83;;;;;;;35.14;30.07;99033.97;5045487;28;20385;-71
2022/08/29 08:01:52;;;;;;;4.47;2.38;;;;;;;34.94;30.37;99016.13;5044821;28;20018;-66
2022/08/29 08:04:17;;;;;;;5.45;2.75;;;;;;;35.44;29.90;99023.88;5039223;28;20044;-66
2022/08/29 08:06:43;;;;;;;8.70;2.70;;;;;;;35.61;30.12;99033.97;5038296;28;20029;-66
2022/08/29 08:09:09;;;;;;;4.72;2.40;;;;;;;34.55;31.16;99033.50;5040963;28;20034;-66
2022/08/29 08:11:37;;;;;;;4.70;2.58;;;;;;;36.41;28.81;99038.19;5040977;28;20021;-76
2022/08/29 08:14:03;;;;;;;6.40;2.63;;;;;;;35.85;29.45;99032.94;5048541;28;20111;-77
2022/08/29 08:16:29;;;;;;;7.97;2.60;;;;;;;35.89;28.85;99016.91;5065099;22;20775;-73
2022/08/29 08:18:55;;;;;;;4.70;2.25;;;;;;;36.13;28.52;99031.94;5047345;28;20130;-74
2022/08/29 08:21:22;;;;;;;8.45;2.60;;;;;;;34.82;30.38;99031.06;5045834;28;20048;-73
2022/08/29 08:23:47;;;;;;;6.07;2.35;;;;;;;35.52;29.54;99019.25;5050153;28;20086;-75
2022/08/29 08:26:13;;;;;;;8.95;2.80;;;;;;;35.35;29.38;99028.88;5048865;28;20052;-73
2022/08/29 08:28:40;;;;;;;5.88;2.60;;;;;;;36.76;27.96;99028.88;5015978;28;20091;-69
2022/08/29 08:31:07;;;;;;;5.68;2.60;;;;;;;37.93;26.75;99036.91;5013295;28;20471;-76
2022/08/29 08:33:34;;;;;;;7.80;2.43;;;;;;;37.02;27.76;99030.13;5034330;28;20024;-74
2022/08/29 08:35:59;;;;;;;5.43;2.60;;;;;;;36.87;28.48;99029.06;5048352;28;20144;-75
2022/08/29 08:38:25;;;;;;;4.55;2.55;;;;;;;37.07;27.27;99035.50;5029244;28;20033;-75
2022/08/29 08:41:00;;;;;;;8.77;2.88;;;;;;;35.35;29.31;99042.97;5027502;28;20031;-70
2022/08/29 08:43:38;;;;;;;4.88;3.00;;;;;;;35.69;29.35;99024.53;5020579;28;20029;-70
2022/08/29 08:46:03;;;;;;;7.17;3.00;;;;;;;36.02;28.76;99031.69;5022790;28;20028;-69
2022/08/29 08:48:37;;;;;;;4.82;2.20;;;;;;;38.18;27.06;99037.31;5024389;28;20066;-68
2022/08/29 08:51:18;;;;;;;6.00;2.97;;;;;;;36.45;28.58;99037.47;5015566;28;20033;-67
2022/08/29 08:53:48;;;;;;;6.10;3.13;;;;;;;36.39;28.42;99037.78;5025644;28;20018;-69
2022/08/29 08:56:45;;;;;;;5.57;2.67;;;;;;;36.46;28.32;99027.81;5025071;28;20057;-67
2022/08/29 08:59:20;;;;;;;7.88;2.97;;;;;;;34.53;31.41;99035.84;5028096;28;20109;-70
2022/08/29 09:02:20;;;;;;;5.57;2.40;;;;;;;37.02;28.12;99038.59;5028939;28;20087;-67
2022/08/29 09:05:19;;;;;;;6.75;2.58;;;;;;;37.43;27.48;99036.13;5026805;28;20167;-68
2022/08/29 09:08:16;;;;;;;5.05;2.67;;;;;;;36.85;28.04;99032.25;5029309;28;20517;-69
2022/08/29 09:11:20;;;;;;;3.95;2.30;;;;;;;37.99;27.80;99032.63;5022835;28;20049;-68
2022/08/29 09:14:01;;;;;;;13.55;3.42;;;;;;;38.07;27.65;99031.53;5029199;28;20057;-68
2022/08/29 09:16:40;;;;;;;6.20;2.55;;;;;;;37.95;27.38;99040.19;5032250;28;20143;-68
2022/08/29 09:19:11;;;;;;;6.50;2.60;;;;;;;37.89;27.45;99033.25;5030628;28;20431;-67
2022/08/29 09:21:45;;;;;;;6.22;2.22;;;;;;;36.32;29.55;99031.97;5028991;28;20382;-70
2022/08/29 09:24:27;;;;;;;4.68;2.53;;;;;;;35.34;30.52;99030.88;5031572;28;20478;-68
2022/08/29 09:26:55;;;;;;;7.50;2.85;;;;;;;36.94;29.22;99028.38;5011786;28;20036;-68
2022/08/29 09:29:22;;;;;;;6.72;2.70;;;;;;;37.54;28.07;99025.03;5011240;28;20033;-68
2022/08/29 09:32:10;;;;;;;6.68;2.85;;;;;;;36.68;28.69;99029.94;5025774;28;20128;-68
2022/08/29 09:34:39;;;;;;;4.85;2.80;;;;;;;36.75;29.24;99030.03;5031984;28;20017;-70
2022/08/29 09:37:31;;;;;;;5.53;2.60;;;;;;;37.38;28.38;99034.41;5032737;28;20021;-69
2022/08/29 09:40:03;;;;;;;5.18;2.38;;;;;;;38.71;27.58;99023.03;5030626;28;20060;-70
2022/08/29 09:42:34;;;;;;;6.65;2.67;;;;;;;39.03;26.50;99019.75;5027381;28;20025;-70
2022/08/29 09:45:16;;;;;;;3.63;2.25;;;;;;;38.73;26.36;99022.66;5030345;28;20187;-70
2022/08/29 09:47:42;;;;;;;8.85;2.55;;;;;;;40.00;25.47;99026.22;5027740;28;20479;-70
2022/08/29 09:50:17;;;;;;;6.78;2.10;;;;;;;40.05;24.90;99020.16;5027659;28;20047;-70
2022/08/29 09:52:57;;;;;;;7.10;2.60;;;;;;;37.83;26.96;99010.13;5024853;28;20021;-69
2022/08/29 09:55:33;;;;;;;5.05;2.50;;;;;;;37.56;27.62;99022.66;5018695;28;20073;-68
2022/08/29 09:58:19;;;;;;;4.75;2.13;;;;;;;38.17;27.54;99024.38;5023043;28;20112;-67
2022/08/29 10:01:08;;;;;;;5.70;2.40;;;;;;;37.96;27.39;99021.22;5024793;28;20501;-67
2022/08/29 10:03:40;;;;;;;8.50;2.50;;;;;;;37.33;27.74;99026.28;5028800;28;20083;-67
2022/08/29 10:06:16;;;;;;;6.25;2.35;;;;;;;37.57;27.74;99022.25;5027906;28;20032;-68
2022/08/29 10:08:54;;;;;;;5.20;2.47;;;;;;;38.34;26.92;99022.97;5024181;28;20030;-70
2022/08/29 10:11:27;;;;;;;4.55;2.10;;;;;;;38.88;26.60;99018.78;5022569;28;20385;-70
2022/08/29 10:13:56;;;;;;;6.13;2.42;;;;;;;39.27;26.08;99007.03;5028731;28;20017;-70
2022/08/29 10:16:40;;;;;;;3.75;1.95;;;;;;;38.63;26.51;99007.19;5027502;28;20030;-70
2022/08/29 10:19:12;;;;;;;4.38;2.50;;;;;;;38.52;27.39;99006.28;5028581;28;20028;-70
2022/08/29 10:22:02;;;;;;;4.20;1.98;;;;;;;38.73;27.11;99002.88;5027544;28;20401;-70
2022/08/29 10:24:40;;;;;;;6.95;2.40;;;;;;;38.33;27.31;99012.84;5019286;28;20683;-69
2022/08/29 10:27:23;;;;;;;10.20;2.70;;;;;;;38.48;26.93;99011.06;5014517;28;20442;-70
2022/08/29 10:29:55;;;;;;;4.13;1.88;;;;;;;39.64;25.74;99008.94;5023131;28;20021;-77
2022/08/29 10:33:06;;;;;;;8.18;2.10;;;;;;;40.37;24.94;99005.34;5027058;28;20042;-74
2022/08/29 10:35:48;;;;;;;3.28;2.08;;;;;;;38.34;26.61;99020.97;4909637;29;20043;-74
2022/08/29 10:38:32;;;;;;;3.45;2.15;;;;;;;38.64;26.43;99011.63;5012364;28;20430;-74
2022/08/29 10:41:02;;;;;;;5.05;2.20;;;;;;;39.21;26.67;99006.56;5024552;28;20029;-73
2022/08/29 10:44:00;;;;;;;3.97;1.80;;;;;;;39.61;25.57;99009.75;5025575;28;20075;-73
2022/08/29 10:46:32;;;;;;;2.90;1.90;;;;;;;39.78;25.32;98997.75;4996544;28;20379;-74
2022/08/29 10:49:00;;;;;;;6.97;2.20;;;;;;;40.73;24.70;99007.13;5029523;28;20053;-73
2022/08/29 10:51:35;;;;;;;;;;;;;;;40.68;24.88;99006.69;5020494;28;20248;-74
2022/08/29 10:54:17;;;;;;;4.32;2.03;;;;;;;41.01;24.37;98994.19;5028814;28;19913;-74
2022/08/29 10:56:45;;;;;;;5.85;2.20;;;;;;;40.14;25.00;99003.63;5011720;28;20467;-73
2022/08/29 10:59:33;;;;;;;3.95;2.20;;;;;;;40.35;25.03;98996.44;5040143;28;20036;-73
2022/08/29 11:02:07;;;;;;;3.63;1.67;;;;;;;40.29;25.04;99002.47;5028308;28;20033;-74
2022/08/29 11:04:52;;;;;;;6.55;2.72;;;;;;;40.69;24.46;98980.78;5021378;28;20041;-73
2022/08/29 11:07:36;;;;;;;5.40;2.60;;;;;;;39.94;25.04;98991.78;5024253;28;20124;-74
2022/08/29 11:10:09;;;;;;;4.03;1.90;;;;;;;40.19;25.10;98989.03;5024798;28;20398;-73
2022/08/29 11:12:44;;;;;;;5.93;2.67;;;;;;;37.97;26.93;98995.47;5024869;28;20072;-74
2022/08/29 11:15:38;;;;;;;5.20;2.42;;;;;;;38.41;25.98;98983.50;5004631;28;20478;-74
2022/08/29 11:18:27;;;;;;;28.27;5.15;;;;;;;36.58;28.14;98974.16;5024096;28;20036;-73
2022/08/29 11:20:59;;;;;;;3.95;2.60;;;;;;;38.77;26.76;98972.59;5010015;28;20036;-74
2022/08/29 11:23:46;;;;;;;18.58;3.20;;;;;;;39.56;25.75;98976.94;5013351;28;20055;-72
2022/08/29 11:26:38;;;;;;;6.50;2.23;;;;;;;39.92;24.92;98968.69;5026649;28;20033;-74
2022/08/29 11:29:49;;;;;;;5.38;2.28;;;;;;;39.52;25.22;98966.81;5028338;28;20031;-73
2022/08/29 11:33:00;;;;;;;6.03;2.17;;;;;;;39.06;25.88;98962.38;5016326;28;20049;-73
2022/08/29 11:35:37;;;;;;;4.72;2.25;;;;;;;38.64;26.15;98962.75;5023630;28;20038;-73
2022/08/29 11:38:28;;;;;;;;;;;;;;;39.18;25.86;98958.44;5026712;28;20030;-73
2022/08/29 11:41:02;;;;;;;6.78;2.13;;;;;;;39.62;25.47;98960.41;5023436;28;20546;-73
2022/08/29 11:43:34;;;;;;;5.43;2.30;;;;;;;40.28;24.58;98957.53;5026097;28;20091;-73
2022/08/29 11:46:05;;;;;;;5.18;2.10;;;;;;;40.94;24.11;98954.47;5020902;28;20431;-73